Time;durP1;ratioP1;P1;durP2;ratioP2;P2;SDS_P1;SDS_P2;PMS_P1;PMS_P2;Temp;Humidity;BMP_temperature;BMP_pressure;BME280_temperature;BME280_humidity;BME280_pressure;Samples;Min_cycle;Max_cycle;Signal;HPM_P1;HPM_P2
2023/07/13 00:00:53;;;;;;;;;;;;;;;10.67;92.49;98343.06;5053642;28;19931;-77
2023/07/13 00:03:20;;;;;;;;;;;;;;;10.66;92.44;98355.75;5053232;28;19924;-78
2023/07/13 00:05:47;;;;;;;;;;;;;;;10.68;92.27;98342.78;5053575;28;20023;-78
2023/07/13 00:08:14;;;;;;;;;;;;;;;10.69;92.02;98347.13;5053078;28;20026;-76
2023/07/13 00:10:41;;;;;;;;;;;;;;;10.70;91.87;98353.34;5053390;28;19924;-78
2023/07/13 00:13:08;;;;;;;;;;;;;;;10.71;91.72;98350.41;5052882;28;19975;-79
2023/07/13 00:15:35;;;;;;;;;;;;;;;10.71;91.71;98352.25;5053276;28;19931;-79
2023/07/13 00:18:02;;;;;;;;;;;;;;;10.71;91.71;98357.66;5053160;28;19978;-79
2023/07/13 00:20:29;;;;;;;;;;;;;;;10.72;91.45;98351.19;5053103;28;19948;-78
2023/07/13 00:22:56;;;;;;;;;;;;;;;10.72;91.27;98357.41;5053000;28;19963;-79
2023/07/13 00:25:24;;;;;;;;;;;;;;;10.72;91.12;98357.41;5034802;28;20303;-78
2023/07/13 00:27:51;;;;;;;;;;;;;;;10.72;90.99;98356.59;5052916;28;20054;-79
2023/07/13 00:30:18;;;;;;;;;;;;;;;10.72;91.06;98354.72;5051752;28;19929;-78
2023/07/13 00:32:44;;;;;;;;;;;;;;;10.74;90.88;98346.38;5051720;28;19929;-78
2023/07/13 00:35:13;;;;;;;;;;;;;;;10.75;90.90;98351.47;5052739;28;19924;-79
2023/07/13 00:37:40;;;;;;;;;;;;;;;10.78;90.71;98350.94;5052792;28;19928;-78
2023/07/13 00:40:07;;;;;;;;;;;;;;;10.79;90.79;98349.91;5051356;28;19931;-78
2023/07/13 00:42:34;;;;;;;;;;;;;;;10.80;90.88;98343.41;5052671;28;19948;-78
2023/07/13 00:45:02;;;;;;;;;;;;;;;10.80;90.85;98342.59;5052779;28;19932;-78
2023/07/13 00:47:29;;;;;;;;;;;;;;;10.82;90.40;98343.97;5052935;28;19925;-78
2023/07/13 00:49:56;;;;;;;;;;;;;;;10.84;90.14;98346.41;5052716;28;20414;-78
2023/07/13 00:52:24;;;;;;;;;;;;;;;10.82;90.02;98352.06;5051019;28;20271;-78
2023/07/13 00:54:50;;;;;;;;;;;;;;;10.81;90.16;98355.00;5052524;28;19931;-77
2023/07/13 00:57:19;;;;;;;;;;;;;;;10.80;90.26;98353.41;5050844;28;19925;-78
2023/07/13 00:59:47;;;;;;;;;;;;;;;10.79;90.26;98352.59;5051256;28;20473;-78
2023/07/13 01:02:14;;;;;;;;;;;;;;;10.78;90.31;98353.66;5050769;28;19932;-77
2023/07/13 01:04:43;;;;;;;;;;;;;;;10.75;90.48;98356.06;5034759;28;19924;-78
2023/07/13 01:07:11;;;;;;;;;;;;;;;10.74;90.74;98346.38;5050727;28;19928;-79
2023/07/13 01:09:37;;;;;;;;;;;;;;;10.76;90.79;98355.81;5051439;28;19935;-79
2023/07/13 01:12:04;;;;;;;;;;;;;;;10.76;90.86;98353.13;5045441;28;20421;-80
2023/07/13 01:14:32;;;;;;;;;;;;;;;10.75;90.91;98340.69;5051397;28;19924;-78
2023/07/13 01:17:00;;;;;;;;;;;;;;;10.76;91.00;98336.94;5052682;28;20391;-77
2023/07/13 01:19:35;;;;;;;;;;;;;;;10.74;91.14;98349.88;5050599;28;19931;-79
2023/07/13 01:22:04;;;;;;;;;;;;;;;10.75;91.28;98342.56;5050567;28;19981;-79
2023/07/13 01:24:32;;;;;;;;;;;;;;;10.75;91.20;98351.47;5034209;28;20669;-79
2023/07/13 01:26:59;;;;;;;;;;;;;;;10.75;91.30;98346.09;5051892;28;20047;-78
2023/07/13 01:29:26;;;;;;;;;;;;;;;10.75;91.39;98343.38;5050050;28;20359;-78
2023/07/13 01:31:53;;;;;;;;;;;;;;;10.75;91.28;98346.09;5050642;28;19963;-78
2023/07/13 01:34:20;;;;;;;;;;;;;;;10.75;91.41;98339.88;5051343;28;19944;-77
2023/07/13 01:36:47;;;;;;;;;;;;;;;10.74;91.50;98338.25;5051889;28;20034;-78
2023/07/13 01:39:15;;;;;;;;;;;;;;;10.71;91.71;98342.28;5051576;28;19928;-78
2023/07/13 01:41:42;;;;;;;;;;;;;;;10.70;91.85;98339.84;5051868;28;19925;-78
2023/07/13 01:44:09;;;;;;;;;;;;;;;10.68;92.11;98332.00;5051420;28;20057;-78
2023/07/13 01:46:35;;;;;;;;;;;;;;;10.67;92.14;98327.69;5051621;28;20454;-79
2023/07/13 01:49:02;;;;;;;;;;;;;;;10.63;92.44;98332.81;5051708;28;20371;-78
2023/07/13 01:51:29;;;;;;;;;;;;;;;10.60;92.76;98327.09;5050040;28;19925;-77
2023/07/13 01:53:56;;;;;;;;;;;;;;;10.59;93.00;98328.19;5050081;28;20458;-78
2023/07/13 01:56:23;;;;;;;;;;;;;;;10.59;93.39;98326.31;5051225;28;19978;-77
2023/07/13 01:58:52;;;;;;;;;;;;;;;10.59;93.46;98320.09;5050581;28;19928;-78
2023/07/13 02:01:18;;;;;;;;;;;;;;;10.62;93.54;98314.16;5051333;28;19987;-80
2023/07/13 02:03:46;;;;;;;;;;;;;;;10.63;93.58;98322.03;5051419;28;19947;-78
2023/07/13 02:06:15;;;;;;;;;;;;;;;10.66;93.48;98317.97;5050887;28;20726;-78
2023/07/13 02:08:42;;;;;;;;;;;;;;;10.66;93.42;98309.06;5050071;28;19926;-79
2023/07/13 02:11:09;;;;;;;;;;;;;;;10.66;93.48;98314.44;5050914;28;19925;-79
2023/07/13 02:13:36;;;;;;;;;;;;;;;10.66;93.69;98312.59;5049748;28;20057;-80
2023/07/13 02:16:03;;;;;;;;;;;;;;;10.67;93.63;98311.50;5037613;28;19971;-78
2023/07/13 02:18:30;;;;;;;;;;;;;;;10.68;93.60;98307.72;5050945;28;20315;-78
2023/07/13 02:20:57;;;;;;;;;;;;;;;10.68;93.55;98321.22;5051143;28;19959;-79
2023/07/13 02:23:24;;;;;;;;;;;;;;;10.69;93.59;98320.16;5049249;28;20036;-77
2023/07/13 02:25:54;;;;;;;;;;;;;;;10.71;93.41;98323.41;5051197;28;19929;-79
2023/07/13 02:28:21;;;;;;;;;;;;;;;10.71;93.34;98328.81;5050635;28;19925;-79
2023/07/13 02:30:48;;;;;;;;;;;;;;;10.72;93.35;98326.91;5049517;28;19936;-79
2023/07/13 02:33:16;;;;;;;;;;;;;;;10.74;93.28;98313.97;5050593;28;19925;-79
2023/07/13 02:35:43;;;;;;;;;;;;;;;10.73;93.30;98315.84;5049536;28;20302;-79
2023/07/13 02:38:10;;;;;;;;;;;;;;;10.75;93.28;98316.38;5050563;28;20401;-78
2023/07/13 02:40:38;;;;;;;;;;;;;;;10.77;93.57;98306.16;5049497;28;19925;-78
2023/07/13 02:43:05;;;;;;;;;;;;;;;10.79;93.24;98311.31;5050419;28;20039;-79
2023/07/13 02:45:31;;;;;;;;;;;;;;;10.80;93.35;98313.72;5049474;28;20023;-78
2023/07/13 02:47:58;;;;;;;;;;;;;;;10.84;93.33;98306.72;5049403;28;19935;-78
2023/07/13 02:50:25;;;;;;;;;;;;;;;10.88;93.40;98307.00;5050412;28;20379;-79
2023/07/13 02:52:52;;;;;;;;;;;;;;;10.90;93.22;98304.84;5050362;28;19932;-79
2023/07/13 02:55:19;;;;;;;;;;;;;;;10.92;93.13;98308.13;5050341;28;19925;-78
2023/07/13 02:57:46;;;;;;;;;;;;;;;10.94;92.73;98305.97;5050444;28;19936;-78
2023/07/13 03:00:12;;;;;;;;;;;;;;;10.96;92.90;98311.91;5048876;28;19929;-78
2023/07/13 03:02:40;;;;;;;;;;;;;;;10.97;92.81;98300.03;5048919;28;19931;-78
2023/07/13 03:05:12;;;;;;;;;;;;;;;11.00;92.72;98314.88;5048948;28;19937;-78
2023/07/13 03:07:41;;;;;;;;;;;;;;;11.01;92.79;98305.69;5049213;28;19947;-79
2023/07/13 03:10:09;;;;;;;;;;;;;;;11.01;92.75;98308.41;5049051;28;19931;-79
2023/07/13 03:12:44;;;;;;;;;;;;;;;11.02;92.84;98305.44;5029129;28;19974;-79
2023/07/13 03:15:19;;;;;;;;;;;;;;;11.05;92.78;98306.81;5046276;28;19931;-79
2023/07/13 03:17:48;;;;;;;;;;;;;;;11.09;92.67;98304.38;5049098;28;19924;-79
2023/07/13 03:20:15;;;;;;;;;;;;;;;11.12;92.67;98299.28;5050283;28;19988;-78
2023/07/13 03:22:42;;;;;;;;;;;;;;;11.16;92.42;98303.06;5050097;28;19925;-80
2023/07/13 03:25:10;;;;;;;;;;;;;;;11.21;92.24;98304.97;5048701;28;19932;-79
2023/07/13 03:27:37;;;;;;;;;;;;;;;11.25;92.15;98297.97;5050333;28;19931;-80
2023/07/13 03:30:07;;;;;;;;;;;;;;;11.32;91.83;98303.09;5047941;28;19925;-78
2023/07/13 03:32:35;;;;;;;;;;;;;;;11.35;91.54;98302.59;5049820;28;19946;-79
2023/07/13 03:35:01;;;;;;;;;;;;;;;11.38;91.24;98310.97;5047659;28;19948;-79
2023/07/13 03:37:31;;;;;;;;;;;;;;;11.41;91.01;98309.63;5052727;28;20019;-78
2023/07/13 03:39:57;;;;;;;;;;;;;;;11.49;91.03;98312.63;5053951;28;19947;-80
2023/07/13 03:42:25;;;;;;;;;;;;;;;11.53;90.53;98307.47;5052118;28;19975;-80
2023/07/13 03:44:53;;;;;;;;;;;;;;;11.60;90.22;98310.75;4692377;28;10000257;-78
2023/07/13 03:47:21;;;;;;;;;;;;;;;11.65;90.02;98299.94;5034121;28;19967;-79
2023/07/13 03:49:48;;;;;;;;;;;;;;;11.72;89.60;98302.38;5041650;28;19960;-79
2023/07/13 03:52:15;;;;;;;;;;;;;;;11.83;89.47;98303.19;5040614;28;19932;-80
2023/07/13 03:54:42;;;;;;;;;;;;;;;11.87;88.68;98304.28;5036271;28;19932;-78
2023/07/13 03:57:09;;;;;;;;;;;;;;;11.96;88.45;98305.41;5036797;28;19939;-79
2023/07/13 03:59:37;;;;;;;;;;;;;;;12.01;88.20;98302.69;5040047;28;19925;-79
2023/07/13 04:02:04;;;;;;;;;;;;;;;12.11;87.79;98310.00;5035537;28;20441;-79
2023/07/13 04:04:33;;;;;;;;;;;;;;;12.22;87.38;98305.38;5029651;28;19971;-79
2023/07/13 04:07:00;;;;;;;;;;;;;;;12.39;87.21;98310.50;5029112;28;19925;-78
2023/07/13 04:09:27;;;;;;;;;;;;;;;12.42;86.19;98308.06;5023370;28;19928;-79
2023/07/13 04:11:54;;;;;;;;;;;;;;;12.44;86.19;98305.88;5049041;28;19932;-79
2023/07/13 04:14:21;;;;;;;;;;;;;;;12.46;85.78;98305.63;5049694;28;19924;-80
2023/07/13 04:16:47;;;;;;;;;;;;;;;12.48;85.51;98317.81;5050155;28;19924;-80
2023/07/13 04:19:14;;;;;;;;;;;;;;;12.44;85.23;98314.00;5048282;28;19924;-80
2023/07/13 04:21:41;;;;;;;;;;;;;;;12.50;85.32;98312.09;5039942;28;20367;-79
2023/07/13 04:24:08;;;;;;;;;;;;;;;12.57;85.34;98318.84;5039305;28;20023;-80
2023/07/13 04:26:38;;;;;;;;;;;;;;;12.61;85.27;98316.41;5032824;28;19925;-80
2023/07/13 04:29:06;;;;;;;;;;;;;;;12.52;84.72;98316.16;5032694;28;19925;-80
2023/07/13 04:31:33;;;;;;;;;;;;;;;12.46;84.87;98308.34;5030172;28;19955;-80
2023/07/13 04:34:00;;;;;;;;;;;;;;;12.46;85.08;98305.63;5036512;28;20035;-79
2023/07/13 04:36:27;;;;;;;;;;;;;;;12.50;84.88;98310.19;5049099;28;19947;-82
2023/07/13 04:38:54;;;;;;;;;;;;;;;12.56;84.91;98309.13;5048869;28;20391;-79
2023/07/13 04:41:21;;;;;;;;;;;;;;;12.58;84.70;98312.38;5048621;28;19925;-79
2023/07/13 04:43:48;;;;;;;;;;;;;;;12.63;84.69;98318.84;5043258;28;19960;-79
2023/07/13 04:46:17;;;;;;;;;;;;;;;12.66;84.52;98319.13;5040822;28;19925;-79
2023/07/13 04:48:44;;;;;;;;;;;;;;;12.65;84.57;98317.47;5034959;28;19924;-80
2023/07/13 04:51:11;;;;;;;;;;;;;;;12.67;84.29;98317.22;5040923;28;19925;-79
2023/07/13 04:53:38;;;;;;;;;;;;;;;12.76;83.99;98327.22;5033069;28;19925;-81
2023/07/13 04:56:05;;;;;;;;;;;;;;;12.81;83.31;98337.19;5028623;28;19925;-81
2023/07/13 04:58:33;;;;;;;;;;;;;;;12.96;83.39;98330.91;5029163;28;19931;-81
2023/07/13 05:01:05;;;;;;;;;;;;;;;12.96;82.65;98323.63;5027727;28;19990;-79
2023/07/13 05:03:32;;;;;;;;;;;;;;;12.95;82.79;98315.75;5027925;28;19931;-79
2023/07/13 05:06:03;;;;;;;;;;;;;;;12.91;83.22;98323.66;5028928;28;19961;-81
2023/07/13 05:08:30;;;;;;;;;;;;;;;12.95;83.23;98322.00;5028248;28;20399;-80
2023/07/13 05:10:59;;;;;;;;;;;;;;;13.01;83.35;98315.47;5038253;28;20039;-81
2023/07/13 05:13:25;;;;;;;;;;;;;;;13.06;83.06;98319.25;5039592;28;20436;-81
2023/07/13 05:15:59;;;;;;;;;;;;;;;13.10;82.85;98310.28;5027233;28;19951;-80
2023/07/13 05:18:27;;;;;;;;;;;;;;;13.17;82.49;98315.41;5038519;28;19968;-79
2023/07/13 05:21:03;;;;;;;;;;;;;;;13.25;82.26;98320.25;5043883;28;19924;-79
2023/07/13 05:23:30;;;;;;;;;;;;;;;13.43;81.85;98310.69;5039071;28;19933;-78
2023/07/13 05:25:57;;;;;;;;;;;;;;;13.60;81.22;98308.44;5040367;28;19928;-79
2023/07/13 05:28:24;;;;;;;;;;;;;;;13.75;80.80;98310.22;5027419;28;19925;-78
2023/07/13 05:30:51;;;;;;;;;;;;;;;13.83;79.57;98309.63;5031731;28;19978;-79
2023/07/13 05:33:18;;;;;;;;;;;;;;;13.81;79.00;98313.69;5033301;28;19932;-80
2023/07/13 05:35:45;;;;;;;;;;;;;;;13.77;79.36;98316.16;5036608;28;19972;-80
2023/07/13 05:38:12;;;;;;;;;;;;;;;13.85;79.01;98314.78;5043454;28;19935;-81
2023/07/13 05:40:39;;;;;;;;;;;;;;;13.92;77.98;98317.16;5042086;28;19925;-78
2023/07/13 05:43:06;;;;;;;;;;;;;;;13.88;77.92;98306.06;5035378;28;20031;-81
2023/07/13 05:45:33;;;;;;;;;;;;;;;14.04;77.86;98304.03;5039068;28;20306;-80
2023/07/13 05:48:00;;;;;;;;;;;;;;;14.17;77.71;98311.50;5039571;28;20407;-81
2023/07/13 05:50:27;;;;;;;;;;;;;;;14.25;77.20;98316.31;5049516;28;19925;-81
2023/07/13 05:52:54;;;;;;;;;;;;;;;14.18;76.80;98309.59;5052207;28;19967;-83
2023/07/13 05:55:21;;;;;;;;;;;;;;;14.35;76.25;98314.59;5053241;28;19924;-81
2023/07/13 05:57:48;;;;;;;;;;;;;;;14.50;75.74;98312.56;5051379;28;19966;-79
2023/07/13 06:00:15;;;;;;;;;;;;;;;14.58;75.36;98311.13;5050906;28;19924;-80
2023/07/13 06:02:42;;;;;;;;;;;;;;;14.64;74.51;98312.72;5051074;28;19963;-79
2023/07/13 06:05:09;;;;;;;;;;;;;;;14.71;73.85;98313.19;5050911;28;19947;-80
2023/07/13 06:07:36;;;;;;;;;;;;;;;14.71;72.86;98315.91;5051884;28;20307;-79
2023/07/13 06:10:03;;;;;;;;;;;;;;;14.88;72.21;98307.28;5051242;28;19932;-81
2023/07/13 06:12:31;;;;;;;;;;;;;;;15.22;70.87;98305.50;5049105;28;20031;-81
2023/07/13 06:14:59;;;;;;;;;;;;;;;15.58;69.86;98300.41;5050745;28;19924;-79
2023/07/13 06:17:29;;;;;;;;;;;;;;;15.67;68.73;98290.47;5050480;28;19924;-81
2023/07/13 06:19:56;;;;;;;;;;;;;;;15.76;67.54;98298.81;5050584;28;19925;-80
2023/07/13 06:22:22;;;;;;;;;;;;;;;15.67;67.77;98295.09;5050412;28;19928;-80
2023/07/13 06:24:49;;;;;;;;;;;;;;;15.74;66.98;98293.66;5049153;28;19925;-80
2023/07/13 06:27:16;;;;;;;;;;;;;;;15.72;65.80;98292.34;5041868;28;20306;-80
2023/07/13 06:29:44;;;;;;;;;;;;;;;15.72;65.96;98292.34;5036467;28;19925;-81
2023/07/13 06:32:11;;;;;;;;;;;;;;;15.94;65.52;98283.56;5030862;28;19925;-81
2023/07/13 06:34:38;;;;;;;;;;;;;;;15.98;64.35;98295.50;5037227;28;20370;-79
2023/07/13 06:37:08;;;;;;;;;;;;;;;15.97;63.42;98291.13;5038051;28;19932;-79
2023/07/13 06:39:35;;;;;;;;;;;;;;;16.01;63.68;98294.88;5031998;28;19925;-80
2023/07/13 06:42:02;;;;;;;;;;;;;;;16.31;63.30;98287.31;5034006;28;20378;-81
2023/07/13 06:44:29;;;;;;;;;;;;;;;16.55;62.44;98287.13;5030526;28;19925;-81
2023/07/13 06:46:57;;;;;;;;;;;;;;;16.56;61.80;98281.41;5030695;28;19929;-80
2023/07/13 06:49:24;;;;;;;;;;;;;;;16.73;61.61;98282.72;5030570;28;19925;-83
2023/07/13 06:51:50;;;;;;;;;;;;;;;16.81;61.85;98280.13;5030483;28;20414;-83
2023/07/13 06:54:17;;;;;;;;;;;;;;;16.84;61.44;98286.88;5030245;28;19929;-82
2023/07/13 06:56:44;;;;;;;;;;;;;;;16.75;61.36;98284.03;5030453;28;19925;-81
2023/07/13 06:59:11;;;;;;;;;;;;;;;16.63;61.94;98283.69;5030307;28;19968;-81
2023/07/13 07:01:38;;;;;;;;;;;;;;;16.74;61.84;98292.50;5029045;28;19979;-81
2023/07/13 07:04:07;;;;;;;;;;;;;;;16.65;61.69;98293.19;5045808;28;20024;-81
2023/07/13 07:06:35;;;;;;;;;;;;;;;16.55;61.57;98287.13;5030311;28;19971;-81
2023/07/13 07:09:02;;;;;;;;;;;;;;;16.38;62.13;98288.53;5033903;28;19925;-80
2023/07/13 07:11:29;;;;;;;;;;;;;;;16.56;62.29;98281.41;5049424;28;19948;-81
2023/07/13 07:13:56;;;;;;;;;;;;;;;16.69;61.50;98283.31;5054045;28;19924;-81
2023/07/13 07:16:23;;;;;;;;;;;;;;;16.71;61.19;98280.31;5053778;28;19925;-80
2023/07/13 07:18:50;;;;;;;;;;;;;;;16.73;61.31;98280.78;5054265;28;19924;-81
2023/07/13 07:21:17;;;;;;;;;;;;;;;16.78;61.45;98280.72;5053855;28;20460;-82
2023/07/13 07:23:44;;;;;;;;;;;;;;;16.87;61.58;98284.34;5052696;28;19935;-80
2023/07/13 07:26:11;;;;;;;;;;;;;;;16.88;61.57;98285.16;5053891;28;20403;-80
2023/07/13 07:28:38;;;;;;;;;;;;;;;16.82;61.78;98287.19;5050860;28;20568;-82
2023/07/13 07:31:08;;;;;;;;;;;;;;;16.76;62.06;98288.38;5033881;28;20098;-81
2023/07/13 07:33:38;;;;;;;;;;;;;;;16.90;61.92;98291.91;5034375;28;19932;-81
2023/07/13 07:36:05;;;;;;;;;;;;;;;16.92;61.51;98299.81;5033924;28;19931;-80
2023/07/13 07:38:35;;;;;;;;;;;;;;;17.02;61.19;98282.44;5032642;28;19925;-81
2023/07/13 07:41:04;;;;;;;;;;;;;;;17.11;60.34;98305.13;5033839;28;20299;-81
2023/07/13 07:43:34;;;;;;;;;;;;;;;16.99;59.90;98297.47;5032401;28;19925;-82
2023/07/13 07:46:01;;;;;;;;;;;;;;;16.94;59.67;98300.31;5033606;28;19963;-80
2023/07/13 07:48:29;;;;;;;;;;;;;;;16.95;59.26;98301.13;5033203;28;19925;-80
2023/07/13 07:50:56;;;;;;;;;;;;;;;16.95;58.66;98298.38;5043690;28;19925;-83
2023/07/13 07:53:23;;;;;;;;;;;;;;;16.95;58.96;98301.91;5035999;28;19955;-81
2023/07/13 07:55:51;;;;;;;;;;;;;;;16.88;59.06;98315.13;5044011;28;19925;-80
2023/07/13 07:58:20;;;;;;;;;;;;;;;16.70;58.39;98311.38;5041421;28;20275;-81
2023/07/13 08:00:50;;;;;;;;;;;;;;;16.61;58.36;98308.53;5033488;28;19925;-81
2023/07/13 08:03:20;;;;;;;;;;;;;;;16.54;58.13;98324.47;5033589;28;19925;-81
2023/07/13 08:05:52;;;;;;;;;;;;;;;16.58;58.23;98305.59;5041793;28;19925;-81
2023/07/13 08:08:39;;;;;;;;;;;;;;;16.54;57.96;98315.50;5033471;28;19978;-81
2023/07/13 08:11:07;;;;;;;;;;;;;;;16.49;58.43;98326.47;5033417;28;20027;-83
2023/07/13 08:13:40;;;;;;;;;;;;;;;16.33;58.42;98329.47;5045586;28;19958;-81
2023/07/13 08:16:07;;;;;;;;;;;;;;;16.10;59.22;98335.81;5039057;28;19972;-82
2023/07/13 08:18:35;;;;;;;;;;;;;;;15.99;60.49;98325.09;5051768;28;20022;-81
2023/07/13 08:21:03;;;;;;;;;;;;;;;15.93;61.61;98320.88;5035557;28;19929;-80
2023/07/13 08:23:32;;;;;;;;;;;;;;;15.94;62.61;98321.66;5018922;28;20290;-82
2023/07/13 08:26:01;;;;;;;;;;;;;;;15.88;61.85;98301.09;5048447;28;20123;-83
2023/07/13 08:28:28;;;;;;;;;;;;;;;15.88;62.63;98301.09;5048784;28;19929;-81
2023/07/13 08:31:00;;;;;;;;;;;;;;;15.95;63.31;98318.66;5033321;28;19925;-82
2023/07/13 08:33:27;;;;;;;;;;;;;;;16.00;63.36;98326.75;5040700;28;20031;-81
2023/07/13 08:35:53;;;;;;;;;;;;;;;15.99;63.80;98314.22;5033058;28;19929;-81
2023/07/13 08:38:25;;;;;;;;;;;;;;;15.79;65.46;98323.50;5033733;28;19925;-81
2023/07/13 08:40:54;;;;;;;;;;;;;;;15.68;66.87;98330.19;5032072;28;19968;-81
2023/07/13 08:43:24;;;;;;;;;;;;;;;15.55;68.08;98318.13;5031792;28;19929;-83
2023/07/13 08:46:02;;;;;;;;;;;;;;;15.46;69.24;98322.59;5032977;28;20153;-82
2023/07/13 08:48:35;;;;;;;;;;;;;;;15.51;69.84;98313.56;5015406;28;20007;-82
2023/07/13 08:51:04;;;;;;;;;;;;;;;15.67;69.70;98305.97;5031667;28;20031;-82
2023/07/13 08:53:37;;;;;;;;;;;;;;;15.81;69.82;98320.50;5032270;28;20375;-82
2023/07/13 08:56:04;;;;;;;;;;;;;;;15.88;68.06;98317.41;5032022;28;19925;-83
2023/07/13 08:58:33;;;;;;;;;;;;;;;15.82;68.20;98317.50;5031866;28;19925;-84
2023/07/13 09:01:16;;;;;;;;;;;;;;;15.77;68.66;98311.31;5000747;28;19924;-81
2023/07/13 09:03:48;;;;;;;;;;;;;;;15.93;68.39;98312.69;5045864;28;19925;-83
2023/07/13 09:06:15;;;;;;;;;;;;;;;15.88;68.38;98299.16;5041088;28;19967;-82
2023/07/13 09:09:00;;;;;;;;;;;;;;;15.86;68.68;98304.09;5028805;28;19939;-82
2023/07/13 09:11:32;;;;;;;;;;;;;;;15.80;68.96;98305.28;5038360;28;19931;-81
2023/07/13 09:13:59;;;;;;;;;;;;;;;15.76;69.30;98312.41;5021270;28;19928;-81
2023/07/13 09:16:26;;;;;;;;;;;;;;;15.76;68.77;98304.25;5039372;28;20443;-80
2023/07/13 09:18:54;;;;;;;;;;;;;;;15.84;68.17;98310.94;5041059;28;20158;-81
2023/07/13 09:21:22;;;;;;;;;;;;;;;16.06;68.06;98323.94;5030809;28;20280;-81
2023/07/13 09:23:52;;;;;;;;;;;;;;;16.19;67.63;98321.25;5030827;28;19955;-82
2023/07/13 09:26:20;;;;;;;;;;;;;;;16.23;67.91;98325.00;5036092;28;19924;-80
2023/07/13 09:28:47;;;;;;;;;;;;;;;16.31;68.00;98326.22;5040581;28;20023;-82
2023/07/13 09:31:14;;;;;;;;;;;;;;;16.34;68.32;98333.78;5029967;28;20413;-81
2023/07/13 09:33:41;;;;;;;;;;;;;;;16.37;68.45;98335.13;5042748;28;19951;-81
2023/07/13 09:36:17;;;;;;;;;;;;;;;16.41;68.48;98328.78;5041395;28;19925;-81
2023/07/13 09:38:45;;;;;;;;;;;;;;;16.33;68.28;98329.47;5042730;28;19947;-82
2023/07/13 09:41:17;;;;;;;;;;;;;;;16.19;68.28;98339.50;5038265;28;19929;-81
2023/07/13 09:44:03;;;;;;;;;;;;;;;15.94;68.81;98333.34;5031828;28;20418;-81
2023/07/13 09:46:30;;;;;;;;;;;;;;;15.70;68.72;98338.88;5032114;28;19932;-81
2023/07/13 09:48:58;;;;;;;;;;;;;;;15.55;69.90;98342.59;5037457;28;19970;-80
2023/07/13 09:51:24;;;;;;;;;;;;;;;15.52;70.41;98336.91;5051604;28;19925;-81
2023/07/13 09:53:51;;;;;;;;;;;;;;;15.50;71.04;98339.94;5051475;28;20341;-83
2023/07/13 09:56:26;;;;;;;;;;;;;;;15.54;71.50;98334.72;5042932;28;19925;-80
2023/07/13 09:58:53;;;;;;;;;;;;;;;15.61;71.56;98341.41;5038105;28;19925;-82
2023/07/13 10:01:34;;;;;;;;;;;;;;;15.52;71.83;98340.47;5031206;28;19925;-81
2023/07/13 10:04:01;;;;;;;;;;;;;;;15.50;72.85;98342.66;5031970;28;19947;-80
2023/07/13 10:06:27;;;;;;;;;;;;;;;15.52;73.22;98348.63;4691020;28;9999926;-81
2023/07/13 10:08:55;;;;;;;;;;;;;;;15.56;73.29;98341.50;5049217;28;19932;-80
2023/07/13 10:11:25;;;;;;;;;;;;;;;15.54;73.51;98340.16;5046566;28;20389;-82
2023/07/13 10:13:55;;;;;;;;;;;;;;;15.52;73.97;98337.75;5038089;28;20030;-80
2023/07/13 10:16:23;;;;;;;;;;;;;;;15.65;74.00;98343.53;5026887;28;20315;-80
2023/07/13 10:18:52;;;;;;;;;;;;;;;15.67;74.17;98335.91;5038440;28;19932;-81
2023/07/13 10:21:22;;;;;;;;;;;;;;;15.65;74.29;98346.25;5042946;28;19929;-79
2023/07/13 10:23:55;;;;;;;;;;;;;;;15.51;74.15;98336.13;5032807;28;19976;-82
2023/07/13 10:26:24;;;;;;;;;;;;;;;15.46;74.54;98343.53;5013398;28;19968;-84
2023/07/13 10:28:55;;;;;;;;;;;;;;;15.42;75.00;98339.78;5040903;28;19924;-84
2023/07/13 10:31:22;;;;;;;;;;;;;;;15.46;75.55;98347.06;5027046;28;19999;-84
2023/07/13 10:33:49;;;;;;;;;;;;;;;15.52;75.74;98337.75;5026950;28;20035;-83
2023/07/13 10:36:22;;;;;;;;;;;;;;;15.55;76.06;98347.25;5030214;28;19956;-83
2023/07/13 10:38:49;;;;;;;;;;;;;;;15.48;75.67;98347.59;5028624;28;20479;-84
2023/07/13 10:41:17;;;;;;;;;;;;;;;15.47;76.35;98347.88;5026848;28;19971;-83
2023/07/13 10:43:45;;;;;;;;;;;;;;;15.45;76.85;98347.38;5029705;28;20383;-83
2023/07/13 10:46:13;;;;;;;;;;;;;;;15.33;77.49;98351.31;5030397;28;19975;-82
2023/07/13 10:48:43;;;;;;;;;;;;;;;15.34;78.37;98352.13;5030728;28;20391;-82
2023/07/13 10:51:10;;;;;;;;;;;;;;;15.30;78.38;98353.81;5013016;28;19932;-83
2023/07/13 10:53:40;;;;;;;;;;;;;;;15.23;78.82;98362.31;5035296;28;19925;-84
2023/07/13 10:56:12;;;;;;;;;;;;;;;15.15;78.53;98355.59;5042630;28;19973;-82
2023/07/13 10:58:40;;;;;;;;;;;;;;;15.08;79.06;98366.00;5035160;28;20319;-82
2023/07/13 11:01:15;;;;;;;;;;;;;;;14.98;79.05;98370.75;5033054;28;19925;-83
2023/07/13 11:03:59;;;;;;;;;;;;;;;14.86;79.67;98373.88;5038041;28;20407;-82
2023/07/13 11:06:26;;;;;;;;;;;;;;;14.72;80.27;98377.28;5029614;28;19925;-84
2023/07/13 11:08:54;;;;;;;;;;;;;;;14.62;81.05;98376.56;5034587;28;19970;-82
2023/07/13 11:11:24;;;;;;;;;;;;;;;14.57;82.38;98371.19;5046347;28;19960;-82
2023/07/13 11:13:51;;;;;;;;;;;;;;;14.58;83.39;98368.16;5050612;28;20019;-83
2023/07/13 11:16:18;;;;;;;;;;;;;;;14.56;83.14;98367.66;5040692;28;19931;-83
2023/07/13 11:18:49;;;;;;;;;;;;;;;14.49;82.50;98370.66;5035337;28;19925;-81
2023/07/13 11:21:16;;;;;;;;;;;;;;;14.48;81.94;98374.50;5040167;28;19931;-82
2023/07/13 11:24:16;;;;;;;;;;;;;;;14.40;81.84;98366.13;5034121;28;19924;-83
2023/07/13 11:26:46;;;;;;;;;;;;;;;14.32;82.42;98357.50;5036745;28;19943;-81
2023/07/13 11:29:24;;;;;;;;;;;;;;;14.26;82.61;98355.94;5034698;28;20395;-83
2023/07/13 11:31:56;;;;;;;;;;;;;;;14.14;80.44;98358.22;5041325;28;19933;-83
2023/07/13 11:34:34;;;;;;;;;;;;;;;14.06;80.27;98364.25;5041454;28;19933;-81
2023/07/13 11:37:00;;;;;;;;;;;;;;;14.00;81.23;98362.66;5028928;28;19925;-82
2023/07/13 11:39:31;;;;;;;;;;;;;;;14.02;82.75;98355.84;5034141;28;19925;-81
2023/07/13 11:42:08;;;;;;;;;;;;;;;14.04;84.55;98356.38;5041515;28;19924;-82
2023/07/13 11:44:41;;;;;;;;;;;;;;;14.09;86.15;98350.13;5028907;28;20346;-82
2023/07/13 11:47:25;;;;;;;;;;;;;;;14.13;87.95;98348.47;5030247;28;19932;-80
2023/07/13 11:49:56;;;;;;;;;;;;;;;14.16;88.67;98342.47;5035789;28;19964;-84
2023/07/13 11:52:30;;;;;;;;;;;;;;;14.15;88.25;98351.69;5046945;28;19932;-81
2023/07/13 11:54:57;;;;;;;;;;;;;;;14.19;87.77;98355.47;5052069;28;20441;-82
2023/07/13 11:57:33;;;;;;;;;;;;;;;14.21;86.29;98364.13;5052687;28;20382;-82
2023/07/13 12:00:06;;;;;;;;;;;;;;;14.19;86.36;98360.06;5039992;28;19971;-82
2023/07/13 12:02:33;;;;;;;;;;;;;;;14.14;85.86;98365.53;5045061;28;19951;-80
2023/07/13 12:05:00;;;;;;;;;;;;;;;14.05;85.33;98368.03;5042787;28;20367;-84
2023/07/13 12:07:28;;;;;;;;;;;;;;;13.88;84.80;98360.31;5038706;28;20406;-82
2023/07/13 12:10:21;;;;;;;;;;;;;;;13.76;84.08;98349.78;5037277;28;19925;-82
2023/07/13 12:12:52;;;;;;;;;;;;;;;13.63;83.54;98343.09;5047614;28;20391;-82
2023/07/13 12:15:22;;;;;;;;;;;;;;;13.60;81.63;98354.50;5053286;28;19925;-83
2023/07/13 12:17:48;;;;;;;;;;;;;;;13.60;81.41;98348.28;5048483;28;19924;-82
2023/07/13 12:20:27;;;;;;;;;;;;;;;13.62;81.15;98352.34;5044257;28;19925;-81
2023/07/13 12:22:54;;;;;;;;;;;;;;;13.75;79.77;98359.03;5034712;28;19925;-81
2023/07/13 12:25:22;;;;;;;;;;;;;;;13.85;79.70;98348.13;5040192;28;19924;-82
2023/07/13 12:27:50;;;;;;;;;;;;;;;13.93;79.38;98356.75;5052000;28;19924;-81
2023/07/13 12:30:23;;;;;;;;;;;;;;;13.98;79.76;98354.81;5039311;28;19924;-82
2023/07/13 12:33:00;;;;;;;;;;;;;;;14.02;79.72;98349.63;5040570;28;19925;-84
2023/07/13 12:35:30;;;;;;;;;;;;;;;13.99;79.85;98358.31;5042108;28;19931;-81
2023/07/13 12:37:58;;;;;;;;;;;;;;;13.94;80.58;98347.50;5051560;28;20066;-79
2023/07/13 12:40:33;;;;;;;;;;;;;;;13.83;81.71;98342.16;5031726;28;19924;-82
2023/07/13 12:43:04;;;;;;;;;;;;;;;13.78;82.01;98344.09;5042466;28;20327;-80
2023/07/13 12:45:31;;;;;;;;;;;;;;;13.82;82.66;98339.72;5024039;28;19935;-84
2023/07/13 12:47:59;;;;;;;;;;;;;;;13.80;83.63;98331.06;5038883;28;19948;-82
2023/07/13 12:50:42;;;;;;;;;;;;;;;13.79;83.65;98330.25;5044077;28;20023;-81
2023/07/13 12:53:12;;;;;;;;;;;;;;;13.80;84.15;98329.16;5025190;28;20273;-85